sensor_id;sensor_type;location;lat;lon;timestamp;P1;durP1;ratioP1;P2;durP2;ratioP2
18983;SDS011;9626;52.552;13.436;2023-12-07T00:02:25;22.73;;;14.83;;
18983;SDS011;9626;52.552;13.436;2023-12-07T00:04:51;24.33;;;16.40;;
18983;SDS011;9626;52.552;13.436;2023-12-07T00:07:17;23.90;;;16.20;;
18983;SDS011;9626;52.552;13.436;2023-12-07T00:09:43;22.13;;;15.47;;
18983;SDS011;9626;52.552;13.436;2023-12-07T00:12:09;22.37;;;14.90;;
18983;SDS011;9626;52.552;13.436;2023-12-07T00:14:35;23.07;;;15.47;;
18983;SDS011;9626;52.552;13.436;2023-12-07T00:17:01;23.60;;;15.73;;
18983;SDS011;9626;52.552;13.436;2023-12-07T00:19:27;22.87;;;14.63;;
18983;SDS011;9626;52.552;13.436;2023-12-07T00:21:53;24.00;;;14.90;;
18983;SDS011;9626;52.552;13.436;2023-12-07T00:24:19;25.07;;;15.30;;
18983;SDS011;9626;52.552;13.436;2023-12-07T00:26:45;21.33;;;14.70;;
18983;SDS011;9626;52.552;13.436;2023-12-07T00:29:10;20.63;;;14.60;;
18983;SDS011;9626;52.552;13.436;2023-12-07T00:31:36;20.07;;;13.53;;
18983;SDS011;9626;52.552;13.436;2023-12-07T00:34:03;21.37;;;14.53;;
18983;SDS011;9626;52.552;13.436;2023-12-07T00:36:29;21.77;;;14.87;;
18983;SDS011;9626;52.552;13.436;2023-12-07T00:38:55;24.33;;;15.57;;
18983;SDS011;9626;52.552;13.436;2023-12-07T00:41:21;21.13;;;14.17;;
18983;SDS011;9626;52.552;13.436;2023-12-07T00:43:47;22.90;;;14.60;;
18983;SDS011;9626;52.552;13.436;2023-12-07T00:46:13;21.53;;;14.77;;
18983;SDS011;9626;52.552;13.436;2023-12-07T00:48:39;19.60;;;14.17;;
18983;SDS011;9626;52.552;13.436;2023-12-07T00:51:08;21.00;;;13.67;;
18983;SDS011;9626;52.552;13.436;2023-12-07T00:53:35;21.57;;;13.50;;
18983;SDS011;9626;52.552;13.436;2023-12-07T00:56:02;20.77;;;14.17;;
18983;SDS011;9626;52.552;13.436;2023-12-07T00:58:29;22.20;;;14.37;;
18983;SDS011;9626;52.552;13.436;2023-12-07T01:00:55;20.63;;;13.40;;
18983;SDS011;9626;52.552;13.436;2023-12-07T01:03:21;20.97;;;15.00;;
18983;SDS011;9626;52.552;13.436;2023-12-07T01:05:47;21.30;;;14.30;;
18983;SDS011;9626;52.552;13.436;2023-12-07T01:08:12;23.27;;;14.67;;
18983;SDS011;9626;52.552;13.436;2023-12-07T01:10:38;20.67;;;13.67;;
18983;SDS011;9626;52.552;13.436;2023-12-07T01:13:04;23.20;;;14.73;;
18983;SDS011;9626;52.552;13.436;2023-12-07T01:15:31;22.73;;;13.93;;
18983;SDS011;9626;52.552;13.436;2023-12-07T01:17:57;24.60;;;15.37;;
18983;SDS011;9626;52.552;13.436;2023-12-07T01:20:23;24.23;;;16.37;;
18983;SDS011;9626;52.552;13.436;2023-12-07T01:22:49;22.83;;;14.80;;
18983;SDS011;9626;52.552;13.436;2023-12-07T01:25:15;24.03;;;13.90;;
18983;SDS011;9626;52.552;13.436;2023-12-07T01:27:45;23.03;;;15.43;;
18983;SDS011;9626;52.552;13.436;2023-12-07T01:30:11;22.20;;;15.07;;
18983;SDS011;9626;52.552;13.436;2023-12-07T01:32:37;25.50;;;16.17;;
18983;SDS011;9626;52.552;13.436;2023-12-07T01:35:03;21.53;;;14.47;;
18983;SDS011;9626;52.552;13.436;2023-12-07T01:37:30;22.67;;;14.17;;
18983;SDS011;9626;52.552;13.436;2023-12-07T01:39:56;21.20;;;13.70;;
18983;SDS011;9626;52.552;13.436;2023-12-07T01:42:22;21.07;;;13.53;;
18983;SDS011;9626;52.552;13.436;2023-12-07T01:44:48;22.80;;;13.90;;
18983;SDS011;9626;52.552;13.436;2023-12-07T01:47:14;20.27;;;12.80;;
18983;SDS011;9626;52.552;13.436;2023-12-07T01:49:40;21.23;;;13.97;;
18983;SDS011;9626;52.552;13.436;2023-12-07T01:52:07;18.93;;;12.40;;
18983;SDS011;9626;52.552;13.436;2023-12-07T01:54:34;23.87;;;14.77;;
18983;SDS011;9626;52.552;13.436;2023-12-07T01:57:01;21.43;;;14.30;;
18983;SDS011;9626;52.552;13.436;2023-12-07T01:59:27;21.53;;;15.47;;
18983;SDS011;9626;52.552;13.436;2023-12-07T02:01:53;21.63;;;14.77;;
18983;SDS011;9626;52.552;13.436;2023-12-07T02:04:19;19.43;;;12.87;;
18983;SDS011;9626;52.552;13.436;2023-12-07T02:06:45;21.27;;;14.33;;
18983;SDS011;9626;52.552;13.436;2023-12-07T02:09:11;22.73;;;14.83;;
18983;SDS011;9626;52.552;13.436;2023-12-07T02:11:38;21.70;;;14.60;;
18983;SDS011;9626;52.552;13.436;2023-12-07T02:14:03;20.67;;;14.10;;
18983;SDS011;9626;52.552;13.436;2023-12-07T02:16:30;21.37;;;13.33;;
18983;SDS011;9626;52.552;13.436;2023-12-07T02:19:21;27.00;;;14.60;;
18983;SDS011;9626;52.552;13.436;2023-12-07T02:22:07;22.40;;;14.10;;
18983;SDS011;9626;52.552;13.436;2023-12-07T02:24:38;20.37;;;12.90;;
18983;SDS011;9626;52.552;13.436;2023-12-07T02:27:32;23.23;;;14.33;;
18983;SDS011;9626;52.552;13.436;2023-12-07T02:30:00;22.00;;;15.03;;
18983;SDS011;9626;52.552;13.436;2023-12-07T02:32:25;23.00;;;15.70;;
18983;SDS011;9626;52.552;13.436;2023-12-07T02:34:51;22.33;;;14.97;;
18983;SDS011;9626;52.552;13.436;2023-12-07T02:37:18;21.30;;;14.10;;
18983;SDS011;9626;52.552;13.436;2023-12-07T02:39:48;22.50;;;14.67;;
18983;SDS011;9626;52.552;13.436;2023-12-07T02:42:16;21.67;;;14.07;;
18983;SDS011;9626;52.552;13.436;2023-12-07T02:44:42;20.20;;;13.57;;
18983;SDS011;9626;52.552;13.436;2023-12-07T02:47:09;19.47;;;13.83;;
18983;SDS011;9626;52.552;13.436;2023-12-07T02:49:34;22.73;;;14.47;;
18983;SDS011;9626;52.552;13.436;2023-12-07T02:52:00;22.57;;;14.03;;
18983;SDS011;9626;52.552;13.436;2023-12-07T02:54:26;20.73;;;14.27;;
18983;SDS011;9626;52.552;13.436;2023-12-07T02:56:52;23.17;;;14.63;;
18983;SDS011;9626;52.552;13.436;2023-12-07T02:59:18;22.27;;;14.00;;
18983;SDS011;9626;52.552;13.436;2023-12-07T03:01:44;20.73;;;13.90;;
18983;SDS011;9626;52.552;13.436;2023-12-07T03:04:10;22.40;;;14.07;;
18983;SDS011;9626;52.552;13.436;2023-12-07T03:06:36;21.90;;;14.27;;
18983;SDS011;9626;52.552;13.436;2023-12-07T03:09:02;21.77;;;14.57;;
18983;SDS011;9626;52.552;13.436;2023-12-07T03:11:28;22.10;;;14.87;;
18983;SDS011;9626;52.552;13.436;2023-12-07T03:13:54;21.17;;;14.57;;
18983;SDS011;9626;52.552;13.436;2023-12-07T03:16:20;20.50;;;12.97;;
18983;SDS011;9626;52.552;13.436;2023-12-07T03:18:46;19.90;;;13.73;;
18983;SDS011;9626;52.552;13.436;2023-12-07T03:21:12;23.00;;;14.20;;
18983;SDS011;9626;52.552;13.436;2023-12-07T03:23:38;20.43;;;13.97;;
18983;SDS011;9626;52.552;13.436;2023-12-07T03:26:04;22.50;;;14.20;;
18983;SDS011;9626;52.552;13.436;2023-12-07T03:28:30;19.10;;;13.40;;
18983;SDS011;9626;52.552;13.436;2023-12-07T03:30:56;22.37;;;14.13;;
18983;SDS011;9626;52.552;13.436;2023-12-07T03:33:22;22.40;;;14.47;;
18983;SDS011;9626;52.552;13.436;2023-12-07T03:35:48;21.23;;;14.50;;
18983;SDS011;9626;52.552;13.436;2023-12-07T03:38:14;21.63;;;14.60;;
18983;SDS011;9626;52.552;13.436;2023-12-07T03:40:42;24.00;;;14.33;;
18983;SDS011;9626;52.552;13.436;2023-12-07T03:43:08;25.87;;;15.77;;
18983;SDS011;9626;52.552;13.436;2023-12-07T03:45:34;24.53;;;16.33;;
18983;SDS011;9626;52.552;13.436;2023-12-07T03:48:00;27.07;;;16.40;;
18983;SDS011;9626;52.552;13.436;2023-12-07T03:50:26;25.67;;;16.10;;
18983;SDS011;9626;52.552;13.436;2023-12-07T03:52:52;25.03;;;15.03;;
18983;SDS011;9626;52.552;13.436;2023-12-07T03:55:18;29.33;;;16.63;;
18983;SDS011;9626;52.552;13.436;2023-12-07T03:57:44;30.80;;;17.30;;
18983;SDS011;9626;52.552;13.436;2023-12-07T04:00:10;29.13;;;17.90;;
18983;SDS011;9626;52.552;13.436;2023-12-07T04:02:37;30.00;;;18.03;;
18983;SDS011;9626;52.552;13.436;2023-12-07T04:05:03;32.90;;;18.40;;
18983;SDS011;9626;52.552;13.436;2023-12-07T04:07:29;32.20;;;17.77;;
18983;SDS011;9626;52.552;13.436;2023-12-07T04:09:55;33.83;;;18.40;;
18983;SDS011;9626;52.552;13.436;2023-12-07T04:12:23;28.97;;;17.60;;
18983;SDS011;9626;52.552;13.436;2023-12-07T04:14:52;31.73;;;18.00;;
18983;SDS011;9626;52.552;13.436;2023-12-07T04:17:18;31.40;;;19.47;;
18983;SDS011;9626;52.552;13.436;2023-12-07T04:19:44;33.27;;;19.90;;
18983;SDS011;9626;52.552;13.436;2023-12-07T04:22:10;30.43;;;17.73;;
18983;SDS011;9626;52.552;13.436;2023-12-07T04:24:36;29.53;;;17.63;;
18983;SDS011;9626;52.552;13.436;2023-12-07T04:27:02;31.97;;;17.63;;
18983;SDS011;9626;52.552;13.436;2023-12-07T04:29:28;29.10;;;17.63;;
18983;SDS011;9626;52.552;13.436;2023-12-07T04:31:54;29.63;;;18.57;;
18983;SDS011;9626;52.552;13.436;2023-12-07T04:34:20;29.33;;;17.77;;
18983;SDS011;9626;52.552;13.436;2023-12-07T04:36:46;26.90;;;16.57;;
18983;SDS011;9626;52.552;13.436;2023-12-07T04:39:12;28.40;;;16.50;;
18983;SDS011;9626;52.552;13.436;2023-12-07T04:41:38;29.33;;;17.77;;
18983;SDS011;9626;52.552;13.436;2023-12-07T04:44:04;29.00;;;17.47;;
18983;SDS011;9626;52.552;13.436;2023-12-07T04:46:30;29.03;;;17.90;;
18983;SDS011;9626;52.552;13.436;2023-12-07T04:48:56;29.43;;;16.77;;
18983;SDS011;9626;52.552;13.436;2023-12-07T04:51:22;28.20;;;17.20;;
18983;SDS011;9626;52.552;13.436;2023-12-07T04:53:47;26.60;;;16.67;;
18983;SDS011;9626;52.552;13.436;2023-12-07T04:56:14;29.70;;;17.63;;
18983;SDS011;9626;52.552;13.436;2023-12-07T04:58:40;31.33;;;18.00;;
18983;SDS011;9626;52.552;13.436;2023-12-07T05:01:06;31.03;;;17.17;;
18983;SDS011;9626;52.552;13.436;2023-12-07T05:03:32;29.23;;;16.60;;
18983;SDS011;9626;52.552;13.436;2023-12-07T05:05:58;28.57;;;17.77;;
18983;SDS011;9626;52.552;13.436;2023-12-07T05:08:24;29.53;;;18.33;;
18983;SDS011;9626;52.552;13.436;2023-12-07T05:10:50;27.10;;;17.13;;
18983;SDS011;9626;52.552;13.436;2023-12-07T05:13:17;29.07;;;17.70;;
18983;SDS011;9626;52.552;13.436;2023-12-07T05:15:43;26.10;;;16.37;;
18983;SDS011;9626;52.552;13.436;2023-12-07T05:18:09;28.37;;;16.83;;
18983;SDS011;9626;52.552;13.436;2023-12-07T05:20:35;30.83;;;17.73;;
18983;SDS011;9626;52.552;13.436;2023-12-07T05:23:04;29.40;;;17.07;;
18983;SDS011;9626;52.552;13.436;2023-12-07T05:25:31;27.87;;;16.50;;
18983;SDS011;9626;52.552;13.436;2023-12-07T05:27:58;30.53;;;16.93;;
18983;SDS011;9626;52.552;13.436;2023-12-07T05:30:24;32.83;;;17.53;;
18983;SDS011;9626;52.552;13.436;2023-12-07T05:32:50;31.97;;;17.17;;
18983;SDS011;9626;52.552;13.436;2023-12-07T05:35:16;30.17;;;16.27;;
18983;SDS011;9626;52.552;13.436;2023-12-07T05:37:42;28.67;;;16.87;;
18983;SDS011;9626;52.552;13.436;2023-12-07T05:40:08;30.73;;;17.43;;
18983;SDS011;9626;52.552;13.436;2023-12-07T05:42:35;36.20;;;19.57;;
18983;SDS011;9626;52.552;13.436;2023-12-07T05:45:01;33.30;;;18.20;;
18983;SDS011;9626;52.552;13.436;2023-12-07T05:47:27;30.70;;;17.27;;
18983;SDS011;9626;52.552;13.436;2023-12-07T05:49:52;29.50;;;16.70;;
18983;SDS011;9626;52.552;13.436;2023-12-07T05:52:18;30.60;;;16.50;;
18983;SDS011;9626;52.552;13.436;2023-12-07T05:54:44;27.83;;;16.37;;
18983;SDS011;9626;52.552;13.436;2023-12-07T05:57:12;27.53;;;16.97;;
18983;SDS011;9626;52.552;13.436;2023-12-07T05:59:39;27.43;;;16.43;;
18983;SDS011;9626;52.552;13.436;2023-12-07T06:02:05;26.33;;;15.83;;
18983;SDS011;9626;52.552;13.436;2023-12-07T06:04:31;29.33;;;16.83;;
18983;SDS011;9626;52.552;13.436;2023-12-07T06:06:57;32.50;;;17.30;;
18983;SDS011;9626;52.552;13.436;2023-12-07T06:09:23;31.57;;;17.13;;
18983;SDS011;9626;52.552;13.436;2023-12-07T06:11:49;29.53;;;17.37;;
18983;SDS011;9626;52.552;13.436;2023-12-07T06:14:15;28.50;;;17.07;;
18983;SDS011;9626;52.552;13.436;2023-12-07T06:16:41;28.90;;;16.07;;
18983;SDS011;9626;52.552;13.436;2023-12-07T06:19:07;28.30;;;16.67;;
18983;SDS011;9626;52.552;13.436;2023-12-07T06:21:33;30.17;;;16.93;;
18983;SDS011;9626;52.552;13.436;2023-12-07T06:24:00;27.80;;;16.77;;
18983;SDS011;9626;52.552;13.436;2023-12-07T06:26:26;32.80;;;18.73;;
18983;SDS011;9626;52.552;13.436;2023-12-07T06:28:52;33.33;;;18.37;;
18983;SDS011;9626;52.552;13.436;2023-12-07T06:31:18;33.20;;;18.03;;
18983;SDS011;9626;52.552;13.436;2023-12-07T06:33:47;31.17;;;17.43;;
18983;SDS011;9626;52.552;13.436;2023-12-07T06:36:23;32.00;;;16.97;;
18983;SDS011;9626;52.552;13.436;2023-12-07T06:38:49;32.10;;;18.40;;
18983;SDS011;9626;52.552;13.436;2023-12-07T06:41:15;28.53;;;17.27;;
18983;SDS011;9626;52.552;13.436;2023-12-07T06:43:41;29.27;;;17.37;;
18983;SDS011;9626;52.552;13.436;2023-12-07T06:46:12;31.87;;;18.00;;
18983;SDS011;9626;52.552;13.436;2023-12-07T06:48:41;32.03;;;17.87;;
18983;SDS011;9626;52.552;13.436;2023-12-07T06:51:07;31.00;;;18.33;;
18983;SDS011;9626;52.552;13.436;2023-12-07T06:53:33;32.20;;;17.23;;
18983;SDS011;9626;52.552;13.436;2023-12-07T06:55:59;32.57;;;17.20;;
18983;SDS011;9626;52.552;13.436;2023-12-07T06:58:25;28.03;;;15.80;;
18983;SDS011;9626;52.552;13.436;2023-12-07T07:00:51;32.93;;;17.73;;
18983;SDS011;9626;52.552;13.436;2023-12-07T07:03:17;32.50;;;18.27;;
18983;SDS011;9626;52.552;13.436;2023-12-07T07:05:43;30.07;;;17.77;;
18983;SDS011;9626;52.552;13.436;2023-12-07T07:08:10;29.93;;;18.23;;
18983;SDS011;9626;52.552;13.436;2023-12-07T07:10:36;31.83;;;18.00;;
18983;SDS011;9626;52.552;13.436;2023-12-07T07:13:02;35.83;;;17.70;;
18983;SDS011;9626;52.552;13.436;2023-12-07T07:15:30;31.27;;;18.17;;
18983;SDS011;9626;52.552;13.436;2023-12-07T07:17:57;31.40;;;17.60;;
18983;SDS011;9626;52.552;13.436;2023-12-07T07:20:24;31.20;;;17.60;;
18983;SDS011;9626;52.552;13.436;2023-12-07T07:22:50;31.33;;;18.57;;
18983;SDS011;9626;52.552;13.436;2023-12-07T07:25:16;33.93;;;17.87;;
18983;SDS011;9626;52.552;13.436;2023-12-07T07:27:47;31.43;;;18.07;;
18983;SDS011;9626;52.552;13.436;2023-12-07T07:30:13;31.37;;;18.03;;
18983;SDS011;9626;52.552;13.436;2023-12-07T07:32:39;30.40;;;16.87;;
18983;SDS011;9626;52.552;13.436;2023-12-07T07:35:06;30.80;;;18.30;;
18983;SDS011;9626;52.552;13.436;2023-12-07T07:37:33;33.90;;;16.87;;
18983;SDS011;9626;52.552;13.436;2023-12-07T07:39:59;31.57;;;17.70;;
18983;SDS011;9626;52.552;13.436;2023-12-07T07:42:32;32.83;;;18.20;;
18983;SDS011;9626;52.552;13.436;2023-12-07T07:44:58;32.60;;;17.67;;
18983;SDS011;9626;52.552;13.436;2023-12-07T07:47:24;30.43;;;17.20;;
18983;SDS011;9626;52.552;13.436;2023-12-07T07:49:50;32.67;;;17.83;;
18983;SDS011;9626;52.552;13.436;2023-12-07T07:52:16;30.47;;;16.37;;
18983;SDS011;9626;52.552;13.436;2023-12-07T07:54:42;29.40;;;16.63;;
18983;SDS011;9626;52.552;13.436;2023-12-07T07:57:09;30.70;;;16.77;;
18983;SDS011;9626;52.552;13.436;2023-12-07T07:59:35;32.93;;;17.77;;
18983;SDS011;9626;52.552;13.436;2023-12-07T08:02:00;32.67;;;17.20;;
18983;SDS011;9626;52.552;13.436;2023-12-07T08:04:27;34.40;;;17.87;;
18983;SDS011;9626;52.552;13.436;2023-12-07T08:06:53;32.23;;;17.20;;
18983;SDS011;9626;52.552;13.436;2023-12-07T08:09:18;29.70;;;17.40;;
18983;SDS011;9626;52.552;13.436;2023-12-07T08:11:46;30.10;;;17.20;;
18983;SDS011;9626;52.552;13.436;2023-12-07T08:14:12;31.63;;;17.60;;
18983;SDS011;9626;52.552;13.436;2023-12-07T08:16:42;31.93;;;17.60;;
18983;SDS011;9626;52.552;13.436;2023-12-07T08:19:09;27.17;;;15.77;;
18983;SDS011;9626;52.552;13.436;2023-12-07T08:21:35;27.53;;;16.90;;
18983;SDS011;9626;52.552;13.436;2023-12-07T08:24:01;33.87;;;18.87;;
18983;SDS011;9626;52.552;13.436;2023-12-07T08:26:27;27.30;;;15.37;;
18983;SDS011;9626;52.552;13.436;2023-12-07T08:28:53;32.37;;;16.83;;
18983;SDS011;9626;52.552;13.436;2023-12-07T08:31:19;29.23;;;16.33;;
18983;SDS011;9626;52.552;13.436;2023-12-07T08:33:45;30.53;;;17.67;;
18983;SDS011;9626;52.552;13.436;2023-12-07T08:36:11;29.63;;;16.70;;
18983;SDS011;9626;52.552;13.436;2023-12-07T08:38:37;30.27;;;17.43;;
18983;SDS011;9626;52.552;13.436;2023-12-07T08:41:03;29.57;;;16.40;;
18983;SDS011;9626;52.552;13.436;2023-12-07T08:43:29;29.33;;;16.47;;
18983;SDS011;9626;52.552;13.436;2023-12-07T08:45:56;30.80;;;17.17;;
18983;SDS011;9626;52.552;13.436;2023-12-07T08:48:22;27.93;;;16.83;;
18983;SDS011;9626;52.552;13.436;2023-12-07T08:50:48;30.60;;;17.77;;
18983;SDS011;9626;52.552;13.436;2023-12-07T08:53:14;34.10;;;19.23;;
18983;SDS011;9626;52.552;13.436;2023-12-07T08:55:40;32.40;;;18.30;;
18983;SDS011;9626;52.552;13.436;2023-12-07T08:58:06;28.63;;;17.30;;
18983;SDS011;9626;52.552;13.436;2023-12-07T09:00:32;24.73;;;15.23;;
18983;SDS011;9626;52.552;13.436;2023-12-07T09:02:59;32.30;;;17.30;;
18983;SDS011;9626;52.552;13.436;2023-12-07T09:05:28;26.40;;;14.97;;
18983;SDS011;9626;52.552;13.436;2023-12-07T09:07:55;26.53;;;16.43;;
18983;SDS011;9626;52.552;13.436;2023-12-07T09:10:22;27.07;;;16.50;;
18983;SDS011;9626;52.552;13.436;2023-12-07T09:12:48;28.03;;;15.07;;
18983;SDS011;9626;52.552;13.436;2023-12-07T09:15:14;25.13;;;15.63;;
18983;SDS011;9626;52.552;13.436;2023-12-07T09:17:40;24.73;;;14.73;;
18983;SDS011;9626;52.552;13.436;2023-12-07T09:20:10;26.33;;;15.67;;
18983;SDS011;9626;52.552;13.436;2023-12-07T09:22:43;27.53;;;15.93;;
18983;SDS011;9626;52.552;13.436;2023-12-07T09:25:10;26.13;;;15.40;;
18983;SDS011;9626;52.552;13.436;2023-12-07T09:27:37;27.13;;;15.27;;
18983;SDS011;9626;52.552;13.436;2023-12-07T09:30:06;26.90;;;15.93;;
18983;SDS011;9626;52.552;13.436;2023-12-07T09:32:39;28.33;;;15.53;;
18983;SDS011;9626;52.552;13.436;2023-12-07T09:35:06;26.07;;;16.10;;
18983;SDS011;9626;52.552;13.436;2023-12-07T09:37:33;27.80;;;16.10;;
18983;SDS011;9626;52.552;13.436;2023-12-07T09:40:00;25.80;;;16.03;;
18983;SDS011;9626;52.552;13.436;2023-12-07T09:42:26;28.50;;;17.40;;
18983;SDS011;9626;52.552;13.436;2023-12-07T09:44:54;28.13;;;16.50;;
18983;SDS011;9626;52.552;13.436;2023-12-07T09:47:20;26.67;;;15.50;;
18983;SDS011;9626;52.552;13.436;2023-12-07T09:49:46;28.77;;;17.27;;
18983;SDS011;9626;52.552;13.436;2023-12-07T09:52:12;26.20;;;15.73;;
18983;SDS011;9626;52.552;13.436;2023-12-07T09:54:41;22.90;;;14.00;;
18983;SDS011;9626;52.552;13.436;2023-12-07T09:57:08;21.97;;;13.60;;
18983;SDS011;9626;52.552;13.436;2023-12-07T09:59:38;22.93;;;13.33;;
18983;SDS011;9626;52.552;13.436;2023-12-07T10:02:06;24.10;;;13.20;;
18983;SDS011;9626;52.552;13.436;2023-12-07T10:04:33;23.77;;;14.17;;
18983;SDS011;9626;52.552;13.436;2023-12-07T10:06:59;23.93;;;14.60;;
18983;SDS011;9626;52.552;13.436;2023-12-07T10:09:25;23.90;;;14.47;;
18983;SDS011;9626;52.552;13.436;2023-12-07T10:12:12;25.03;;;15.23;;
18983;SDS011;9626;52.552;13.436;2023-12-07T10:14:38;28.93;;;16.03;;
18983;SDS011;9626;52.552;13.436;2023-12-07T10:17:05;29.43;;;16.30;;
18983;SDS011;9626;52.552;13.436;2023-12-07T10:19:31;29.47;;;17.17;;
18983;SDS011;9626;52.552;13.436;2023-12-07T10:21:57;30.67;;;16.90;;
18983;SDS011;9626;52.552;13.436;2023-12-07T10:24:24;29.73;;;17.57;;
18983;SDS011;9626;52.552;13.436;2023-12-07T10:26:51;32.23;;;17.57;;
18983;SDS011;9626;52.552;13.436;2023-12-07T10:29:17;31.27;;;17.10;;
18983;SDS011;9626;52.552;13.436;2023-12-07T10:31:44;34.07;;;17.77;;
18983;SDS011;9626;52.552;13.436;2023-12-07T10:34:12;33.13;;;18.37;;
18983;SDS011;9626;52.552;13.436;2023-12-07T10:36:42;31.07;;;17.73;;
18983;SDS011;9626;52.552;13.436;2023-12-07T10:39:12;34.90;;;18.43;;
18983;SDS011;9626;52.552;13.436;2023-12-07T10:41:39;30.13;;;17.00;;
18983;SDS011;9626;52.552;13.436;2023-12-07T10:44:09;29.87;;;17.23;;
18983;SDS011;9626;52.552;13.436;2023-12-07T10:46:39;33.67;;;18.67;;
18983;SDS011;9626;52.552;13.436;2023-12-07T10:49:07;28.40;;;16.43;;
18983;SDS011;9626;52.552;13.436;2023-12-07T10:51:48;33.20;;;18.00;;
18983;SDS011;9626;52.552;13.436;2023-12-07T10:54:18;29.20;;;16.50;;
18983;SDS011;9626;52.552;13.436;2023-12-07T10:56:48;30.93;;;17.37;;
18983;SDS011;9626;52.552;13.436;2023-12-07T10:59:16;52.07;;;25.43;;
18983;SDS011;9626;52.552;13.436;2023-12-07T11:01:42;36.97;;;18.67;;
18983;SDS011;9626;52.552;13.436;2023-12-07T11:04:13;33.27;;;17.80;;
18983;SDS011;9626;52.552;13.436;2023-12-07T11:06:40;31.43;;;17.00;;
18983;SDS011;9626;52.552;13.436;2023-12-07T11:09:12;32.63;;;17.70;;
18983;SDS011;9626;52.552;13.436;2023-12-07T11:11:49;31.57;;;17.13;;
18983;SDS011;9626;52.552;13.436;2023-12-07T11:14:22;33.43;;;17.23;;
18983;SDS011;9626;52.552;13.436;2023-12-07T11:16:49;33.50;;;17.53;;
18983;SDS011;9626;52.552;13.436;2023-12-07T11:22:12;30.37;;;16.37;;
18983;SDS011;9626;52.552;13.436;2023-12-07T11:24:51;28.10;;;16.70;;
18983;SDS011;9626;52.552;13.436;2023-12-07T11:27:23;28.43;;;17.00;;
18983;SDS011;9626;52.552;13.436;2023-12-07T11:29:50;28.70;;;16.53;;
18983;SDS011;9626;52.552;13.436;2023-12-07T11:32:16;28.23;;;16.33;;
18983;SDS011;9626;52.552;13.436;2023-12-07T11:34:43;31.40;;;16.80;;
18983;SDS011;9626;52.552;13.436;2023-12-07T11:37:10;28.77;;;16.90;;
18983;SDS011;9626;52.552;13.436;2023-12-07T11:39:37;29.73;;;16.93;;
18983;SDS011;9626;52.552;13.436;2023-12-07T11:42:08;28.33;;;15.93;;
18983;SDS011;9626;52.552;13.436;2023-12-07T11:44:37;28.93;;;16.43;;
18983;SDS011;9626;52.552;13.436;2023-12-07T11:47:05;28.10;;;16.87;;
18983;SDS011;9626;52.552;13.436;2023-12-07T11:49:32;29.20;;;16.97;;
18983;SDS011;9626;52.552;13.436;2023-12-07T11:51:58;27.23;;;15.90;;
18983;SDS011;9626;52.552;13.436;2023-12-07T11:54:26;28.50;;;16.33;;
18983;SDS011;9626;52.552;13.436;2023-12-07T11:56:55;29.77;;;18.10;;
18983;SDS011;9626;52.552;13.436;2023-12-07T11:59:22;29.23;;;16.87;;
18983;SDS011;9626;52.552;13.436;2023-12-07T12:01:51;28.70;;;15.57;;
18983;SDS011;9626;52.552;13.436;2023-12-07T12:04:17;28.10;;;16.27;;
18983;SDS011;9626;52.552;13.436;2023-12-07T12:06:44;29.73;;;17.77;;
18983;SDS011;9626;52.552;13.436;2023-12-07T12:09:13;32.20;;;18.53;;
18983;SDS011;9626;52.552;13.436;2023-12-07T12:11:46;29.00;;;17.57;;
18983;SDS011;9626;52.552;13.436;2023-12-07T12:14:16;28.57;;;16.40;;
18983;SDS011;9626;52.552;13.436;2023-12-07T12:16:43;27.20;;;16.43;;
18983;SDS011;9626;52.552;13.436;2023-12-07T12:19:10;30.87;;;17.63;;
18983;SDS011;9626;52.552;13.436;2023-12-07T12:21:36;30.40;;;18.17;;
18983;SDS011;9626;52.552;13.436;2023-12-07T12:24:05;30.57;;;18.63;;
18983;SDS011;9626;52.552;13.436;2023-12-07T12:26:33;31.70;;;17.10;;
18983;SDS011;9626;52.552;13.436;2023-12-07T12:29:00;30.50;;;17.17;;
18983;SDS011;9626;52.552;13.436;2023-12-07T12:31:28;27.83;;;16.17;;
18983;SDS011;9626;52.552;13.436;2023-12-07T12:33:55;32.13;;;18.17;;
18983;SDS011;9626;52.552;13.436;2023-12-07T12:36:21;29.87;;;16.20;;
18983;SDS011;9626;52.552;13.436;2023-12-07T12:38:49;30.97;;;17.43;;
18983;SDS011;9626;52.552;13.436;2023-12-07T12:41:19;31.93;;;18.67;;
18983;SDS011;9626;52.552;13.436;2023-12-07T12:43:46;35.30;;;18.43;;
18983;SDS011;9626;52.552;13.436;2023-12-07T12:46:13;28.97;;;16.60;;
18983;SDS011;9626;52.552;13.436;2023-12-07T12:48:58;30.37;;;17.67;;
18983;SDS011;9626;52.552;13.436;2023-12-07T12:51:26;35.27;;;18.93;;
18983;SDS011;9626;52.552;13.436;2023-12-07T12:53:54;32.20;;;18.03;;
18983;SDS011;9626;52.552;13.436;2023-12-07T12:56:21;30.83;;;18.30;;
18983;SDS011;9626;52.552;13.436;2023-12-07T12:58:52;34.50;;;19.07;;
18983;SDS011;9626;52.552;13.436;2023-12-07T13:01:19;37.10;;;20.23;;
18983;SDS011;9626;52.552;13.436;2023-12-07T13:03:46;35.87;;;20.87;;
18983;SDS011;9626;52.552;13.436;2023-12-07T13:06:13;38.50;;;20.30;;
18983;SDS011;9626;52.552;13.436;2023-12-07T13:08:46;37.70;;;20.60;;
18983;SDS011;9626;52.552;13.436;2023-12-07T13:11:16;36.77;;;20.90;;
18983;SDS011;9626;52.552;13.436;2023-12-07T13:13:44;36.57;;;20.43;;
18983;SDS011;9626;52.552;13.436;2023-12-07T13:16:10;41.23;;;22.37;;
18983;SDS011;9626;52.552;13.436;2023-12-07T13:18:40;45.10;;;21.90;;
18983;SDS011;9626;52.552;13.436;2023-12-07T13:21:06;39.63;;;22.93;;
18983;SDS011;9626;52.552;13.436;2023-12-07T13:23:32;49.70;;;24.87;;
18983;SDS011;9626;52.552;13.436;2023-12-07T13:25:58;48.60;;;25.20;;
18983;SDS011;9626;52.552;13.436;2023-12-07T13:28:24;49.23;;;25.30;;
18983;SDS011;9626;52.552;13.436;2023-12-07T13:30:51;42.07;;;23.83;;
18983;SDS011;9626;52.552;13.436;2023-12-07T13:33:17;147.27;;;31.63;;
18983;SDS011;9626;52.552;13.436;2023-12-07T13:35:43;73.13;;;26.40;;
18983;SDS011;9626;52.552;13.436;2023-12-07T13:38:08;42.70;;;22.47;;
18983;SDS011;9626;52.552;13.436;2023-12-07T13:40:34;45.57;;;24.53;;
18983;SDS011;9626;52.552;13.436;2023-12-07T13:43:02;36.90;;;22.30;;
18983;SDS011;9626;52.552;13.436;2023-12-07T13:45:29;45.07;;;24.80;;
18983;SDS011;9626;52.552;13.436;2023-12-07T13:47:55;44.70;;;24.13;;
18983;SDS011;9626;52.552;13.436;2023-12-07T13:50:21;45.30;;;24.73;;
18983;SDS011;9626;52.552;13.436;2023-12-07T13:52:48;42.17;;;24.87;;
18983;SDS011;9626;52.552;13.436;2023-12-07T13:55:14;47.00;;;26.07;;
18983;SDS011;9626;52.552;13.436;2023-12-07T13:57:40;46.53;;;26.33;;
18983;SDS011;9626;52.552;13.436;2023-12-07T14:00:06;47.07;;;25.67;;
18983;SDS011;9626;52.552;13.436;2023-12-07T14:02:32;48.57;;;26.97;;
18983;SDS011;9626;52.552;13.436;2023-12-07T14:04:58;48.90;;;26.90;;
18983;SDS011;9626;52.552;13.436;2023-12-07T14:07:24;53.73;;;29.37;;
18983;SDS011;9626;52.552;13.436;2023-12-07T14:09:51;52.07;;;27.87;;
18983;SDS011;9626;52.552;13.436;2023-12-07T14:12:17;53.27;;;27.33;;
18983;SDS011;9626;52.552;13.436;2023-12-07T14:14:44;49.70;;;26.57;;
18983;SDS011;9626;52.552;13.436;2023-12-07T14:17:14;54.93;;;30.13;;
18983;SDS011;9626;52.552;13.436;2023-12-07T14:19:41;50.97;;;26.23;;
18983;SDS011;9626;52.552;13.436;2023-12-07T14:22:08;86.50;;;47.13;;
18983;SDS011;9626;52.552;13.436;2023-12-07T14:24:35;74.33;;;39.97;;